createdAt,value
2022-09-16T00:04:49.627Z,92
2022-09-16T00:14:49.643Z,92
2022-09-16T00:24:49.618Z,92
2022-09-16T00:34:49.571Z,92
2022-09-16T00:44:49.596Z,92
2022-09-16T00:54:49.565Z,92
2022-09-16T01:04:49.515Z,93
2022-09-16T01:14:49.538Z,93
2022-09-16T01:24:49.519Z,93
2022-09-16T01:34:49.449Z,93
2022-09-16T01:44:49.469Z,93
2022-09-16T01:54:49.447Z,93
2022-09-16T02:04:49.405Z,93
2022-09-16T02:14:49.427Z,93
2022-09-16T02:24:49.406Z,93
2022-09-16T02:34:49.339Z,94
2022-09-16T02:44:49.357Z,93
2022-09-16T02:54:49.329Z,94
2022-09-16T03:04:49.311Z,94
2022-09-16T03:14:49.305Z,94
2022-09-16T03:24:49.280Z,94
2022-09-16T03:34:49.226Z,94
2022-09-16T03:44:49.246Z,94
2022-09-16T03:54:49.225Z,94
2022-09-16T04:04:49.172Z,94
2022-09-16T04:14:49.185Z,94
2022-09-16T04:24:49.138Z,94
2022-09-16T04:34:49.115Z,94
2022-09-16T04:44:49.132Z,94
2022-09-16T04:54:49.089Z,94
2022-09-16T05:04:49.066Z,95
2022-09-16T05:14:49.084Z,94
2022-09-16T05:24:49.019Z,95
2022-09-16T05:44:49.023Z,95
2022-09-16T05:54:48.964Z,95
2022-09-16T06:04:48.947Z,95
2022-09-16T06:14:48.962Z,95
2022-09-16T06:24:48.913Z,95
2022-09-16T06:34:48.897Z,95
2022-09-16T06:44:48.905Z,95
2022-09-16T06:54:48.849Z,95
2022-09-16T07:04:48.834Z,95
2022-09-16T07:14:48.842Z,95
2022-09-16T07:24:48.807Z,95
2022-09-16T07:34:48.785Z,95
2022-09-16T07:54:48.750Z,95
2022-09-16T08:04:48.723Z,95
2022-09-16T08:14:48.731Z,96
2022-09-16T08:24:48.684Z,96
2022-09-16T08:34:48.669Z,96
2022-09-16T08:44:48.677Z,96
2022-09-16T08:54:48.661Z,96
2022-09-16T09:04:48.606Z,95
2022-09-16T09:14:48.589Z,95
2022-09-16T09:24:48.610Z,95
2022-09-16T09:34:48.546Z,95
2022-09-16T09:44:48.535Z,94
2022-09-16T09:54:48.537Z,93
2022-09-16T10:04:48.501Z,92
2022-09-16T10:14:48.473Z,91
2022-09-16T10:24:48.479Z,89
2022-09-16T10:34:48.425Z,89
2022-09-16T10:44:48.411Z,87
2022-09-16T10:54:48.425Z,86
2022-09-16T11:04:48.355Z,84
2022-09-16T11:14:48.346Z,82
2022-09-16T11:24:48.344Z,80
2022-09-16T11:34:48.307Z,79
2022-09-16T11:44:48.273Z,79
2022-09-16T11:54:48.281Z,80
2022-09-16T12:04:48.227Z,81
2022-09-16T12:14:48.209Z,82
2022-09-16T12:24:48.229Z,82
2022-09-16T12:34:48.166Z,82
2022-09-16T12:44:48.142Z,78
2022-09-16T12:55:04.377Z,75
2022-09-16T13:04:48.102Z,73
2022-09-16T13:14:48.086Z,70
2022-09-16T13:24:48.101Z,69
2022-09-16T13:34:48.045Z,68
2022-09-16T13:44:48.029Z,67
2022-09-16T13:55:08.998Z,66
2022-09-16T14:04:47.977Z,65
2022-09-16T14:14:48.482Z,64
2022-09-16T14:24:52.916Z,62
2022-09-16T14:34:47.910Z,62
2022-09-16T14:44:47.892Z,61
2022-09-16T14:54:47.898Z,60
2022-09-16T15:04:47.866Z,59
2022-09-16T15:14:47.858Z,58
2022-09-16T15:24:47.844Z,58
2022-09-16T15:34:47.777Z,58
2022-09-16T15:44:47.757Z,58
2022-09-16T15:54:47.767Z,59
2022-09-16T16:04:47.736Z,59
2022-09-16T16:14:47.736Z,60
2022-09-16T16:24:47.736Z,60
2022-09-16T16:34:47.657Z,60
2022-09-16T16:44:47.646Z,61
2022-09-16T16:54:47.653Z,61
2022-09-16T17:04:47.595Z,60
2022-09-16T17:14:47.609Z,61
2022-09-16T17:24:47.582Z,61
2022-09-16T17:34:47.543Z,61
2022-09-16T17:44:47.537Z,61
2022-09-16T17:54:47.521Z,61
2022-09-16T18:04:47.513Z,62
2022-09-16T18:14:47.486Z,62
2022-09-16T18:24:47.436Z,62
2022-09-16T18:34:47.416Z,63
2022-09-16T18:44:47.396Z,63
2022-09-16T18:54:47.369Z,63
2022-09-16T19:04:47.357Z,63
2022-09-16T19:14:47.373Z,64
2022-09-16T19:24:47.308Z,65
2022-09-16T19:34:47.307Z,65
2022-09-16T19:44:47.272Z,65
2022-09-16T19:54:47.258Z,66
2022-09-16T20:04:47.240Z,66
2022-09-16T20:14:47.250Z,67
2022-09-16T20:24:53.826Z,67
2022-09-16T20:34:47.179Z,67
2022-09-16T20:44:49.454Z,67
2022-09-16T20:54:47.138Z,67
2022-09-16T21:04:47.128Z,68
2022-09-16T21:14:47.137Z,68
2022-09-16T21:24:47.088Z,68
2022-09-16T21:34:47.063Z,68
2022-09-16T21:44:47.074Z,68
2022-09-16T21:54:47.027Z,68
2022-09-16T22:04:47.004Z,67
2022-09-16T22:14:47.018Z,67
2022-09-16T22:24:46.963Z,67
2022-09-16T22:34:46.947Z,67
2022-09-16T22:44:46.938Z,67
2022-09-16T22:54:46.937Z,68
2022-09-16T23:04:46.901Z,68
2022-09-16T23:14:46.885Z,69
2022-09-16T23:24:46.900Z,69
2022-09-16T23:34:46.833Z,70
2022-09-16T23:44:46.805Z,70
2022-09-16T23:54:46.834Z,70
